createdAt,value
2019-02-21T00:00:01.813Z,16.80
2019-02-21T00:02:34.520Z,17.97
2019-02-21T00:05:05.875Z,17.30
2019-02-21T00:07:37.150Z,17.87
2019-02-21T00:10:08.690Z,17.17
2019-02-21T00:12:40.031Z,16.90
2019-02-21T00:15:11.425Z,16.70
2019-02-21T00:17:42.537Z,17.03
2019-02-21T00:20:13.644Z,17.83
2019-02-21T00:22:44.741Z,16.67
2019-02-21T00:25:15.849Z,16.73
2019-02-21T00:27:46.943Z,15.97
2019-02-21T00:30:18.088Z,17.03
2019-02-21T00:32:49.178Z,17.00
2019-02-21T00:35:21.340Z,15.97
2019-02-21T00:37:52.527Z,15.73
2019-02-21T00:40:23.667Z,15.93
2019-02-21T00:42:54.791Z,15.73
2019-02-21T00:45:25.954Z,15.77
2019-02-21T00:47:57.143Z,15.33
2019-02-21T00:50:28.309Z,15.70
2019-02-21T00:52:59.488Z,15.87
2019-02-21T00:55:30.628Z,15.07
2019-02-21T00:58:01.771Z,16.30
2019-02-21T01:00:32.942Z,15.03
2019-02-21T01:03:04.437Z,14.93
2019-02-21T01:05:35.627Z,14.27
2019-02-21T01:08:06.928Z,15.20
2019-02-21T01:10:38.126Z,15.10
2019-02-21T01:13:09.290Z,15.83
2019-02-21T01:15:40.504Z,15.07
2019-02-21T01:18:11.654Z,14.17
2019-02-21T01:20:43.873Z,15.27
2019-02-21T01:23:14.948Z,13.27
2019-02-21T01:25:46.028Z,14.40
2019-02-21T01:28:17.315Z,14.60
2019-02-21T01:30:56.639Z,13.57
2019-02-21T01:33:21.147Z,13.83
2019-02-21T01:35:52.225Z,13.43
2019-02-21T01:38:23.355Z,13.27
2019-02-21T01:40:54.416Z,14.17
2019-02-21T01:43:25.632Z,13.60
2019-02-21T01:45:56.772Z,13.27
2019-02-21T01:48:29.660Z,13.53
2019-02-21T01:51:00.735Z,13.90
2019-02-21T01:53:31.834Z,14.60
2019-02-21T01:56:03.069Z,13.90
2019-02-21T01:58:37.185Z,13.00
2019-02-21T02:01:09.066Z,12.77
2019-02-21T02:03:40.381Z,12.60
2019-02-21T02:06:11.510Z,13.17
2019-02-21T02:08:42.671Z,13.80
2019-02-21T02:11:13.840Z,13.57
2019-02-21T02:13:46.162Z,14.03
2019-02-21T02:16:17.497Z,13.33
2019-02-21T02:18:48.537Z,13.27
2019-02-21T02:21:19.705Z,14.13
2019-02-21T02:23:50.853Z,13.97
2019-02-21T02:26:22.025Z,15.73
2019-02-21T02:28:53.095Z,14.03
2019-02-21T02:31:24.181Z,13.57
2019-02-21T02:33:55.399Z,14.43
2019-02-21T02:36:26.458Z,13.47
2019-02-21T02:38:57.639Z,13.47
2019-02-21T02:41:28.710Z,13.47
2019-02-21T02:43:59.857Z,14.20
2019-02-21T02:46:31.048Z,13.93
2019-02-21T02:49:02.113Z,13.80
2019-02-21T02:51:33.282Z,13.83
2019-02-21T02:54:04.454Z,13.50
2019-02-21T02:56:35.675Z,13.73
2019-02-21T02:59:06.736Z,13.70
2019-02-21T03:01:37.787Z,14.73
2019-02-21T03:04:09.015Z,13.63
2019-02-21T03:06:40.252Z,13.73
2019-02-21T03:09:14.436Z,15.23
2019-02-21T03:11:45.590Z,14.13
2019-02-21T03:14:16.746Z,12.93
2019-02-21T03:16:47.902Z,14.07
2019-02-21T03:19:19.139Z,13.77
2019-02-21T03:21:50.244Z,14.50
2019-02-21T03:24:21.364Z,13.20
2019-02-21T03:26:52.495Z,14.60
2019-02-21T03:29:23.597Z,13.33
2019-02-21T03:31:56.084Z,13.20
2019-02-21T03:34:27.525Z,13.53
2019-02-21T03:36:58.641Z,13.47
2019-02-21T03:39:29.724Z,12.53
2019-02-21T03:42:01.040Z,13.37
2019-02-21T03:44:32.079Z,13.83
2019-02-21T03:47:03.167Z,13.40
2019-02-21T03:49:34.244Z,14.27
2019-02-21T03:52:05.442Z,14.80
2019-02-21T03:54:36.988Z,14.70
2019-02-21T03:57:08.047Z,13.60
2019-02-21T03:59:39.152Z,14.87
2019-02-21T04:02:10.264Z,14.80
2019-02-21T04:04:42.440Z,13.63
2019-02-21T04:07:14.715Z,13.07
2019-02-21T04:09:45.871Z,13.63
2019-02-21T04:12:17.025Z,13.90
2019-02-21T04:14:48.135Z,13.70
2019-02-21T04:17:19.170Z,14.33
2019-02-21T04:19:50.315Z,13.53
2019-02-21T04:22:21.494Z,13.97
2019-02-21T04:24:52.650Z,13.37
2019-02-21T04:27:23.761Z,13.70
2019-02-21T04:29:54.945Z,12.43
2019-02-21T04:32:26.026Z,12.80
2019-02-21T04:34:57.199Z,13.20
2019-02-21T04:37:28.455Z,11.70
2019-02-21T04:39:59.572Z,12.10
2019-02-21T04:42:30.706Z,12.83
2019-02-21T04:45:01.768Z,11.60
2019-02-21T04:47:32.924Z,12.87
2019-02-21T04:50:04.038Z,12.47
2019-02-21T04:52:35.150Z,12.13
2019-02-21T04:55:06.256Z,13.30
2019-02-21T04:57:37.496Z,12.03
2019-02-21T05:00:10.956Z,13.10
2019-02-21T05:02:42.061Z,13.17
2019-02-21T05:05:13.220Z,13.43
2019-02-21T05:07:44.381Z,13.47
2019-02-21T05:10:15.549Z,13.03
2019-02-21T05:12:46.732Z,13.13
2019-02-21T05:15:17.832Z,13.57
2019-02-21T05:17:49.001Z,13.10
2019-02-21T05:20:20.148Z,13.07
2019-02-21T05:22:51.322Z,12.93
2019-02-21T05:25:22.467Z,13.57
2019-02-21T05:28:15.599Z,14.27
2019-02-21T05:30:47.769Z,13.00
2019-02-21T05:33:54.201Z,14.17
2019-02-21T05:36:38.269Z,13.30
2019-02-21T05:39:30.731Z,14.03
2019-02-21T05:42:10.901Z,14.83
2019-02-21T05:45:06.760Z,14.53
2019-02-21T05:47:43.282Z,14.97
2019-02-21T05:50:31.913Z,14.30
2019-02-21T05:53:31.138Z,13.67
2019-02-21T05:56:12.974Z,15.80
2019-02-21T05:58:59.604Z,16.00
2019-02-21T06:02:08.606Z,16.23
2019-02-21T06:05:10.942Z,16.50
2019-02-21T06:08:03.706Z,18.17
2019-02-21T06:10:47.782Z,18.30
2019-02-21T06:13:36.816Z,18.07
2019-02-21T06:16:33.107Z,18.93
2019-02-21T06:19:33.749Z,17.77
2019-02-21T06:22:24.417Z,18.67
2019-02-21T06:25:17.520Z,16.83
2019-02-21T06:27:53.832Z,15.83
2019-02-21T06:30:50.250Z,17.63
2019-02-21T06:33:21.384Z,16.03
2019-02-21T06:35:53.597Z,17.47
2019-02-21T06:38:24.776Z,16.10
2019-02-21T06:40:55.993Z,17.97
2019-02-21T06:43:27.124Z,17.83
2019-02-21T06:45:58.324Z,17.87
2019-02-21T06:48:29.427Z,18.23
2019-02-21T06:51:00.637Z,16.60
2019-02-21T06:53:31.717Z,18.30
2019-02-21T06:56:02.823Z,18.73
2019-02-21T06:58:34.019Z,17.77
2019-02-21T07:01:05.199Z,18.60
2019-02-21T07:03:36.580Z,19.30
2019-02-21T07:06:07.781Z,18.97
2019-02-21T07:08:40.130Z,17.87
2019-02-21T07:11:11.504Z,20.13
2019-02-21T07:13:42.697Z,19.53
2019-02-21T07:16:13.961Z,19.20
2019-02-21T07:18:45.153Z,20.67
2019-02-21T07:21:16.334Z,20.67
2019-02-21T07:23:47.536Z,19.77
2019-02-21T07:26:20.266Z,19.00
2019-02-21T07:28:51.523Z,19.63
2019-02-21T07:31:28.922Z,19.43
2019-02-21T07:33:55.552Z,20.43
2019-02-21T07:36:26.975Z,20.10
2019-02-21T07:39:13.753Z,19.10
2019-02-21T07:41:30.885Z,19.40
2019-02-21T07:44:11.730Z,18.20
2019-02-21T07:46:34.696Z,18.63
2019-02-21T07:49:05.819Z,20.00
2019-02-21T07:51:37.074Z,20.27
2019-02-21T07:54:08.228Z,20.03
2019-02-21T07:56:42.325Z,18.53
2019-02-21T07:59:12.398Z,18.70
2019-02-21T08:01:43.483Z,17.77
2019-02-21T08:04:14.771Z,17.57
2019-02-21T08:06:46.091Z,18.97
2019-02-21T08:09:18.965Z,17.00
2019-02-21T08:11:50.278Z,18.10
2019-02-21T08:14:21.508Z,18.47
2019-02-21T08:16:56.084Z,17.20
2019-02-21T08:19:26.756Z,18.07
2019-02-21T08:22:00.015Z,17.87
2019-02-21T08:24:30.998Z,17.53
2019-02-21T08:27:02.284Z,16.97
2019-02-21T08:29:34.269Z,17.77
2019-02-21T08:32:05.665Z,16.83
2019-02-21T08:34:43.584Z,16.53
2019-02-21T08:37:15.087Z,15.97
2019-02-21T08:39:46.348Z,17.30
2019-02-21T08:42:17.528Z,16.87
2019-02-21T08:44:48.812Z,16.70
2019-02-21T08:47:20.064Z,17.50
2019-02-21T08:49:51.210Z,15.70
2019-02-21T08:52:22.618Z,18.40
2019-02-21T08:55:00.161Z,16.27
2019-02-21T08:57:26.647Z,16.67
2019-02-21T08:59:57.867Z,16.77
2019-02-21T09:02:29.046Z,17.27
2019-02-21T09:05:00.258Z,18.13
2019-02-21T09:07:31.464Z,19.20
2019-02-21T09:10:02.739Z,18.60
2019-02-21T09:12:34.389Z,18.83
2019-02-21T09:15:06.160Z,19.87
2019-02-21T09:17:38.509Z,17.73
2019-02-21T09:20:10.582Z,18.80
2019-02-21T09:22:42.046Z,19.17
2019-02-21T09:25:13.808Z,19.97
2019-02-21T09:27:45.049Z,18.53
2019-02-21T09:30:17.697Z,19.53
2019-02-21T09:32:48.924Z,18.93
2019-02-21T09:35:20.216Z,20.43
2019-02-21T09:37:51.641Z,19.93
2019-02-21T09:40:22.909Z,20.53
2019-02-21T09:42:54.182Z,20.53
2019-02-21T09:45:25.567Z,21.57
2019-02-21T09:48:07.962Z,21.43
2019-02-21T09:50:39.146Z,21.37
2019-02-21T09:53:10.378Z,20.63
2019-02-21T09:55:41.671Z,22.47
2019-02-21T09:58:13.304Z,21.60
2019-02-21T10:00:44.585Z,21.63
2019-02-21T10:03:15.848Z,21.87
2019-02-21T10:05:49.624Z,19.33
2019-02-21T10:08:21.992Z,21.80
2019-02-21T10:10:53.423Z,21.13
2019-02-21T10:13:24.646Z,23.03
2019-02-21T10:15:55.875Z,21.70
2019-02-21T10:18:28.257Z,21.90
2019-02-21T10:20:59.539Z,22.97
2019-02-21T10:23:30.679Z,23.37
2019-02-21T10:26:01.860Z,23.37
2019-02-21T10:28:38.256Z,24.07
2019-02-21T10:31:09.478Z,22.10
2019-02-21T10:33:47.127Z,22.57
2019-02-21T10:36:13.642Z,21.53
2019-02-21T10:38:47.878Z,22.27
2019-02-21T10:41:19.085Z,23.57
2019-02-21T10:43:50.310Z,21.90
2019-02-21T10:46:21.582Z,22.67
2019-02-21T10:48:52.818Z,23.23
2019-02-21T10:51:24.020Z,24.23
2019-02-21T10:53:55.233Z,24.97
2019-02-21T10:56:26.594Z,22.77
2019-02-21T10:58:57.941Z,22.63
2019-02-21T11:01:30.943Z,23.30
2019-02-21T11:04:02.190Z,22.57
2019-02-21T11:06:33.370Z,21.37
2019-02-21T11:09:07.155Z,21.17
2019-02-21T11:11:38.320Z,20.73
2019-02-21T11:14:09.721Z,19.80
2019-02-21T11:16:40.903Z,19.77
2019-02-21T11:19:12.242Z,20.07
2019-02-21T11:21:43.389Z,20.10
2019-02-21T11:24:14.732Z,19.77
2019-02-21T11:26:45.896Z,18.00
2019-02-21T11:29:17.095Z,19.00
2019-02-21T11:31:48.309Z,19.83
2019-02-21T11:34:19.481Z,17.93
2019-02-21T11:36:50.629Z,20.27
2019-02-21T11:39:21.837Z,35.43
2019-02-21T11:41:52.979Z,25.43
2019-02-21T11:44:24.070Z,24.73
2019-02-21T11:46:55.189Z,26.87
2019-02-21T11:49:26.283Z,27.87
2019-02-21T11:51:57.437Z,29.47
2019-02-21T11:54:28.631Z,25.57
2019-02-21T11:56:59.748Z,28.03
2019-02-21T11:59:30.805Z,26.33
2019-02-21T12:02:02.110Z,24.87
2019-02-21T12:04:33.248Z,24.60
2019-02-21T12:07:04.374Z,24.73
2019-02-21T12:09:35.542Z,24.73
2019-02-21T12:12:06.701Z,25.10
2019-02-21T12:14:37.890Z,24.17
2019-02-21T12:17:09.034Z,24.27
2019-02-21T12:19:40.194Z,30.20
2019-02-21T12:22:11.278Z,24.63
2019-02-21T12:24:42.369Z,25.63
2019-02-21T12:27:13.571Z,25.10
2019-02-21T12:29:44.683Z,24.17
2019-02-21T12:32:16.255Z,23.20
2019-02-21T12:34:48.861Z,29.67
2019-02-21T12:37:20.039Z,33.07
2019-02-21T12:39:51.236Z,29.00
2019-02-21T12:42:22.390Z,27.50
2019-02-21T12:44:53.537Z,28.33
2019-02-21T12:47:24.648Z,29.00
2019-02-21T12:49:55.881Z,27.43
2019-02-21T12:52:27.034Z,28.67
2019-02-21T12:54:58.501Z,30.33
2019-02-21T12:57:29.901Z,29.07
2019-02-21T13:00:01.096Z,28.63
2019-02-21T13:02:32.993Z,29.67
2019-02-21T13:05:06.079Z,30.87
2019-02-21T13:07:37.289Z,31.07
2019-02-21T13:10:11.140Z,31.23
2019-02-21T13:12:42.569Z,30.20
2019-02-21T13:15:14.216Z,30.50
2019-02-21T13:17:45.789Z,40.33
2019-02-21T13:20:17.285Z,35.67
2019-02-21T13:22:48.614Z,39.83
2019-02-21T13:25:20.002Z,31.13
2019-02-21T13:27:51.339Z,30.17
2019-02-21T13:30:22.618Z,26.70
2019-02-21T13:32:54.286Z,23.37
2019-02-21T13:35:25.628Z,26.80
2019-02-21T13:37:57.098Z,25.67
2019-02-21T13:40:28.190Z,26.07
2019-02-21T13:42:59.309Z,25.50
2019-02-21T13:45:31.674Z,23.67
2019-02-21T13:48:02.851Z,23.10
2019-02-21T13:50:34.068Z,21.50
2019-02-21T13:53:05.277Z,20.87
2019-02-21T13:55:36.492Z,21.00
2019-02-21T13:58:07.682Z,23.40
2019-02-21T14:00:38.905Z,21.83
2019-02-21T14:03:10.127Z,22.43
2019-02-21T14:05:41.311Z,20.60
2019-02-21T14:08:12.672Z,21.93
2019-02-21T14:10:43.895Z,20.93
2019-02-21T14:13:15.101Z,20.43
2019-02-21T14:15:46.378Z,22.10
2019-02-21T14:18:17.638Z,21.53
2019-02-21T14:20:48.846Z,21.23
2019-02-21T14:23:20.121Z,24.23
2019-02-21T14:25:51.469Z,23.67
2019-02-21T14:28:22.861Z,28.37
2019-02-21T14:30:54.213Z,33.67
2019-02-21T14:33:25.846Z,31.93
2019-02-21T14:35:57.743Z,29.67
2019-02-21T14:38:29.429Z,27.57
2019-02-21T14:41:00.628Z,25.70
2019-02-21T14:43:31.815Z,27.10
2019-02-21T14:46:03.070Z,27.20
2019-02-21T14:48:34.259Z,32.77
2019-02-21T14:51:05.435Z,39.23
2019-02-21T14:53:36.631Z,31.10
2019-02-21T14:56:07.753Z,36.93
2019-02-21T14:58:38.882Z,34.27
2019-02-21T15:01:10.255Z,33.53
2019-02-21T15:03:41.500Z,35.13
2019-02-21T15:06:12.859Z,32.47
2019-02-21T15:08:44.130Z,36.67
2019-02-21T15:11:15.497Z,37.13
2019-02-21T15:13:46.867Z,33.40
2019-02-21T15:16:18.102Z,32.90
2019-02-21T15:18:49.492Z,39.03
2019-02-21T15:21:20.727Z,38.53
2019-02-21T15:23:51.967Z,30.40
2019-02-21T15:26:23.221Z,33.83
2019-02-21T15:28:54.469Z,31.37
2019-02-21T15:31:25.704Z,32.67
2019-02-21T15:33:57.075Z,32.07
2019-02-21T15:36:37.907Z,31.87
2019-02-21T15:39:01.552Z,33.77
2019-02-21T15:41:34.480Z,32.60
2019-02-21T15:44:05.894Z,33.27
2019-02-21T15:46:37.707Z,32.93
2019-02-21T15:49:09.106Z,33.93
2019-02-21T15:51:40.659Z,33.00
2019-02-21T15:54:12.588Z,31.40
2019-02-21T15:56:45.117Z,30.33
2019-02-21T15:59:16.563Z,31.20
2019-02-21T16:01:48.066Z,32.50
2019-02-21T16:04:19.564Z,32.57
2019-02-21T16:06:51.798Z,30.77
2019-02-21T16:09:25.385Z,28.50
2019-02-21T16:11:57.125Z,29.87
2019-02-21T16:14:28.313Z,26.67
2019-02-21T16:16:59.631Z,33.80
2019-02-21T16:19:30.882Z,34.47
2019-02-21T16:22:02.215Z,30.97
2019-02-21T16:24:35.083Z,29.20
2019-02-21T16:27:06.413Z,26.73
2019-02-21T16:29:37.852Z,25.83
2019-02-21T16:32:09.129Z,24.73
2019-02-21T16:34:40.607Z,26.47
2019-02-21T16:37:13.601Z,27.93
2019-02-21T16:39:45.147Z,27.40
2019-02-21T16:42:16.347Z,25.93
2019-02-21T16:44:47.597Z,27.47
2019-02-21T16:47:20.091Z,28.43
2019-02-21T16:49:51.407Z,27.13
2019-02-21T16:52:22.789Z,23.50
2019-02-21T16:54:54.035Z,27.03
2019-02-21T16:57:25.263Z,20.97
2019-02-21T16:59:56.486Z,20.63
2019-02-21T17:02:27.757Z,18.33
2019-02-21T17:04:59.093Z,20.00
2019-02-21T17:07:30.385Z,19.17
2019-02-21T17:10:03.901Z,17.57
2019-02-21T17:12:37.123Z,17.23
2019-02-21T17:15:09.851Z,16.67
2019-02-21T17:17:41.139Z,19.20
2019-02-21T17:20:14.417Z,16.80
2019-02-21T17:22:45.953Z,17.33
2019-02-21T17:25:17.506Z,15.97
2019-02-21T17:27:48.833Z,15.60
2019-02-21T17:30:20.592Z,14.17
2019-02-21T17:32:51.850Z,16.83
2019-02-21T17:35:23.175Z,14.47
2019-02-21T17:37:54.490Z,14.97
2019-02-21T17:40:26.938Z,13.60
2019-02-21T17:42:58.110Z,15.63
2019-02-21T17:45:29.558Z,15.50
2019-02-21T17:48:00.779Z,18.00
2019-02-21T17:50:32.240Z,16.67
2019-02-21T17:53:03.537Z,16.73
2019-02-21T17:55:36.622Z,18.57
2019-02-21T17:58:08.030Z,18.43
2019-02-21T18:00:39.753Z,19.80
2019-02-21T18:03:11.873Z,17.50
2019-02-21T18:05:43.259Z,17.77
2019-02-21T18:08:14.592Z,20.03
2019-02-21T18:10:46.124Z,19.63
2019-02-21T18:13:17.420Z,18.03
2019-02-21T18:15:48.803Z,20.37
2019-02-21T18:18:20.115Z,20.97
2019-02-21T18:20:51.558Z,20.10
2019-02-21T18:23:22.916Z,20.07
2019-02-21T18:25:59.892Z,21.30
2019-02-21T18:28:31.529Z,22.50
2019-02-21T18:31:20.655Z,21.03
2019-02-21T18:33:52.921Z,24.67
2019-02-21T18:36:24.143Z,21.67
2019-02-21T18:38:55.508Z,26.23
2019-02-21T18:41:26.851Z,22.97
2019-02-21T18:43:58.164Z,22.57
2019-02-21T18:46:29.583Z,24.53
2019-02-21T18:49:00.997Z,27.57
2019-02-21T18:51:32.400Z,22.00
2019-02-21T18:54:03.709Z,23.30
2019-02-21T18:56:35.095Z,23.83
2019-02-21T18:59:06.349Z,23.10
2019-02-21T19:01:37.658Z,22.73
2019-02-21T19:04:08.910Z,26.73
2019-02-21T19:06:40.183Z,22.27
2019-02-21T19:09:11.882Z,27.37
2019-02-21T19:11:43.305Z,25.33
2019-02-21T19:14:14.792Z,23.80
2019-02-21T19:16:46.148Z,26.60
2019-02-21T19:19:17.390Z,26.80
2019-02-21T19:21:48.879Z,25.43
2019-02-21T19:24:20.158Z,24.30
2019-02-21T19:26:51.538Z,26.90
2019-02-21T19:29:22.807Z,25.93
2019-02-21T19:32:02.033Z,22.77
2019-02-21T19:34:33.350Z,26.63
2019-02-21T19:37:04.807Z,28.60
2019-02-21T19:39:36.289Z,28.50
2019-02-21T19:42:11.438Z,26.47
2019-02-21T19:44:42.804Z,27.73
2019-02-21T19:47:14.067Z,29.50
2019-02-21T19:49:45.316Z,28.17
2019-02-21T19:52:16.502Z,28.00
2019-02-21T19:54:50.359Z,28.80
2019-02-21T19:57:21.591Z,27.17
2019-02-21T19:59:52.831Z,28.37
2019-02-21T20:02:24.177Z,28.40
2019-02-21T20:04:55.396Z,26.27
2019-02-21T20:07:26.725Z,26.83
2019-02-21T20:09:58.090Z,26.07
2019-02-21T20:12:29.331Z,26.20
2019-02-21T20:15:00.581Z,27.07
2019-02-21T20:17:34.384Z,26.47
2019-02-21T20:20:06.079Z,27.23
2019-02-21T20:22:37.319Z,27.33
2019-02-21T20:25:20.093Z,27.20
2019-02-21T20:28:00.720Z,28.53
2019-02-21T20:30:42.266Z,28.63
2019-02-21T20:33:13.786Z,27.10
2019-02-21T20:35:45.052Z,27.47
2019-02-21T20:38:16.263Z,28.33
2019-02-21T20:40:47.494Z,29.40
2019-02-21T20:43:18.687Z,29.50
2019-02-21T20:45:53.405Z,28.17
2019-02-21T20:48:22.859Z,28.83
2019-02-21T20:50:57.184Z,30.80
2019-02-21T20:53:27.509Z,31.77
2019-02-21T20:55:59.042Z,33.07
2019-02-21T20:58:30.319Z,32.73
2019-02-21T21:01:03.325Z,34.43
2019-02-21T21:03:35.286Z,36.83
2019-02-21T21:06:06.834Z,36.03
2019-02-21T21:08:43.187Z,33.33
2019-02-21T21:11:11.118Z,37.03
2019-02-21T21:13:44.173Z,35.37
2019-02-21T21:16:15.296Z,37.27
2019-02-21T21:18:46.546Z,37.53
2019-02-21T21:21:20.740Z,38.37
2019-02-21T21:23:51.993Z,37.83
2019-02-21T21:26:23.766Z,40.33
2019-02-21T21:28:55.031Z,37.30
2019-02-21T21:31:26.334Z,39.67
2019-02-21T21:33:57.603Z,39.07
2019-02-21T21:36:29.840Z,39.20
2019-02-21T21:39:01.374Z,40.30
2019-02-21T21:41:34.143Z,40.37
2019-02-21T21:44:05.536Z,39.53
2019-02-21T21:46:36.789Z,40.90
2019-02-21T21:49:08.007Z,41.23
2019-02-21T21:51:39.264Z,41.10
2019-02-21T21:54:10.576Z,40.13
2019-02-21T21:56:41.833Z,41.60
2019-02-21T21:59:14.445Z,42.90
2019-02-21T22:01:47.596Z,41.40
2019-02-21T22:04:20.963Z,42.77
2019-02-21T22:06:51.599Z,42.77
2019-02-21T22:09:22.934Z,41.37
2019-02-21T22:11:54.199Z,44.07
2019-02-21T22:14:25.479Z,43.20
2019-02-21T22:16:57.072Z,43.93
2019-02-21T22:19:28.628Z,43.60
2019-02-21T22:22:00.238Z,45.47
2019-02-21T22:24:31.784Z,45.17
2019-02-21T22:27:03.723Z,44.77
2019-02-21T22:29:35.579Z,45.23
2019-02-21T22:32:07.121Z,42.00
2019-02-21T22:34:38.647Z,43.03
2019-02-21T22:37:10.434Z,44.93
2019-02-21T22:39:42.281Z,41.50
2019-02-21T22:42:13.904Z,40.60
2019-02-21T22:44:45.132Z,39.33
2019-02-21T22:47:16.624Z,40.27
2019-02-21T22:49:48.416Z,39.47
2019-02-21T22:52:19.858Z,40.23
2019-02-21T22:54:51.178Z,38.43
2019-02-21T22:57:22.511Z,38.57
2019-02-21T22:59:53.975Z,37.97
2019-02-21T23:02:25.970Z,38.40
2019-02-21T23:05:35.628Z,38.03
2019-02-21T23:08:46.190Z,39.67
2019-02-21T23:11:17.554Z,41.30
2019-02-21T23:13:49.525Z,36.53
2019-02-21T23:16:21.060Z,39.13
2019-02-21T23:18:52.367Z,36.90
2019-02-21T23:21:23.856Z,36.27
2019-02-21T23:23:55.293Z,35.70
2019-02-21T23:26:28.630Z,34.97
2019-02-21T23:29:00.662Z,33.77
2019-02-21T23:31:32.046Z,34.10
2019-02-21T23:34:03.372Z,32.67
2019-02-21T23:36:34.612Z,35.17
2019-02-21T23:39:06.769Z,32.97
2019-02-21T23:54:09.597Z,30.60
2019-02-21T23:56:40.812Z,30.03
2019-02-21T23:59:11.985Z,30.40
